VTBD/DMK METAR and TAF weather

Enter ICAO airport designator
Station Type Date Time Source
VTBD METAR 2019/10/15 21:00 UTC NOAA

VTBD 152100Z 02004KT 9999 FEW020 27/25 Q1011 NOSIG


Station Type Date Time Source
VTBD Decoded METAR 2019/10/15 21:00 UTC NOAA

Don Muang, Thailand (VTBD) 13-55N 100-36E 12M
Oct 15, 2019 - 05:00 PM EDT / 2019.10.15 2100 UTC
Wind: from the NNE (020 degrees) at 5 MPH (4 KT):0
Visibility: greater than 7 mile(s):0
Sky conditions: mostly clear
Temperature: 80 F (27 C)
Dew Point: 77 F (25 C)
Relative Humidity: 88%
Pressure (altimeter): 29.85 in. Hg (1011 hPa)
ob: VTBD 152100Z 02004KT 9999 FEW020 27/25 Q1011 NOSIG
cycle: 21

Station Type Date Time Source
VTBD TAF 2019/10/15 18:36 UTC NOAA

TAF TAF VTBD 151700Z 1518/1624 34005KT 9999 FEW020 SCT100
BECMG 1602/1604 05008KT FEW020
TEMPO 1610/1614 VRB15KT 6000 -TSRA FEW018CB SCT030 BKN080
BECMG 1616/1618 34005KT

Example: see airport list